Terminal Aerodrome Forecast
Issued by NWS

Home | Current Version | Previous Version | Text Only | Print | Product List | Glossary On
Versions: 1 2 3 4 5 6 7 8 9 10 11 12 13 14 15 16 17 18 19 20 21
220
FTUS43 KAPX 302320
TAFTVC
TAF
KTVC 302320Z 0100/0124 08008KT P6SM VCSH SCT025 OVC050
     FM011000 07005KT P6SM VCSH BKN025 OVC030
     FM011200 06006KT P6SM VCSH OVC015
     FM011800 07009KT 6SM -SHRA OVC015=

USA.gov is the U.S. government's official web portal to all federal, state and local government web resources and services.